createdAt,value
2023-01-30T01:30:47.091Z,19.73
2023-01-30T01:33:15.276Z,18.73
2023-01-30T01:35:43.067Z,19.83
2023-01-30T01:38:10.750Z,17.50
2023-01-30T01:40:58.949Z,16.73
2023-01-30T01:43:26.640Z,20.48
2023-01-30T01:45:57.289Z,20.05
2023-01-30T01:48:29.421Z,19.05
2023-01-30T01:51:09.953Z,17.83
2023-01-30T01:53:42.648Z,16.77
2023-01-30T01:56:10.378Z,17.77
2023-01-30T01:58:42.930Z,19.85
2023-01-30T02:01:10.716Z,18.45
2023-01-30T02:03:41.840Z,19.30
2023-01-30T02:06:09.623Z,22.85
2023-01-30T02:08:40.241Z,16.30
2023-01-30T02:11:43.095Z,21.02
2023-01-30T02:14:11.644Z,20.05
2023-01-30T02:16:39.368Z,21.65
2023-01-30T02:19:21.640Z,23.70
2023-01-30T02:22:15.462Z,19.58
2023-01-30T02:25:21.397Z,27.65
2023-01-30T02:28:24.230Z,54.67
2023-01-30T02:31:22.832Z,30.88
2023-01-30T02:34:05.703Z,27.55
2023-01-30T02:36:40.893Z,32.40
2023-01-30T02:39:38.590Z,85.45
2023-01-30T02:42:15.986Z,37.40
2023-01-30T02:44:59.319Z,29.48
2023-01-30T02:47:37.484Z,35.05
2023-01-30T02:50:42.362Z,30.05
2023-01-30T02:53:11.030Z,29.73
2023-01-30T02:55:40.379Z,27.67
2023-01-30T02:58:08.075Z,24.92
2023-01-30T03:00:51.258Z,50.67
2023-01-30T03:03:44.156Z,86.93
2023-01-30T03:06:38.613Z,40.72
2023-01-30T03:09:45.574Z,67.35
2023-01-30T03:12:18.521Z,23.85
2023-01-30T03:14:59.597Z,67.78
2023-01-30T03:17:27.419Z,72.63
2023-01-30T03:19:55.498Z,35.55
2023-01-30T03:22:23.899Z,80.07
2023-01-30T03:24:53.098Z,38.10
2023-01-30T03:27:20.934Z,24.08
2023-01-30T03:29:49.952Z,20.90
2023-01-30T03:32:17.875Z,22.98
2023-01-30T03:34:46.010Z,25.30
2023-01-30T03:37:16.641Z,21.95
2023-01-30T03:39:44.603Z,25.50
2023-01-30T03:42:16.207Z,35.10
2023-01-30T03:44:44.185Z,25.63
2023-01-30T03:47:12.324Z,29.75
2023-01-30T03:49:40.917Z,29.13
2023-01-30T03:52:08.887Z,30.63
2023-01-30T03:54:36.777Z,27.95
2023-01-30T03:57:06.028Z,26.08
2023-01-30T03:59:34.562Z,40.30
2023-01-30T04:02:07.298Z,31.25
2023-01-30T04:04:35.431Z,31.15
2023-01-30T04:09:37.994Z,29.92
2023-01-30T04:12:07.695Z,28.20
2023-01-30T04:14:41.165Z,29.42
2023-01-30T04:17:26.895Z,31.65
2023-01-30T04:20:13.350Z,33.45
2023-01-30T04:22:46.643Z,31.00
2023-01-30T04:25:16.603Z,31.25
2023-01-30T04:27:44.954Z,29.45
2023-01-30T04:30:19.463Z,29.75
2023-01-30T04:32:49.917Z,33.53
2023-01-30T04:35:18.505Z,40.42
2023-01-30T04:37:46.365Z,32.58
2023-01-30T04:40:20.575Z,25.75
2023-01-30T04:42:48.585Z,28.50
2023-01-30T04:45:54.592Z,33.20
2023-01-30T04:48:23.774Z,28.02
2023-01-30T04:50:53.719Z,33.28
2023-01-30T04:53:21.723Z,35.28
2023-01-30T04:55:49.935Z,31.63
2023-01-30T04:58:19.508Z,33.17
2023-01-30T05:00:47.613Z,30.98
2023-01-30T05:03:15.681Z,26.65
2023-01-30T05:05:43.624Z,44.22
2023-01-30T05:08:11.306Z,35.08
2023-01-30T05:10:39.093Z,39.17
2023-01-30T05:13:07.639Z,35.58
2023-01-30T05:15:35.639Z,41.58
2023-01-30T05:18:03.387Z,30.25
2023-01-30T05:20:31.158Z,46.58
2023-01-30T05:22:59.033Z,34.28
2023-01-30T05:25:26.764Z,42.20
2023-01-30T05:27:54.490Z,12.32
2023-01-30T05:30:22.168Z,34.67
2023-01-30T05:32:49.974Z,68.82
2023-01-30T05:35:17.864Z,55.92
2023-01-30T05:37:51.093Z,33.43
2023-01-30T05:42:46.483Z,44.33
2023-01-30T05:45:15.608Z,60.17
2023-01-30T05:47:43.724Z,63.63
2023-01-30T05:50:12.073Z,63.65
2023-01-30T05:52:39.719Z,70.07
2023-01-30T05:55:07.754Z,37.83
2023-01-30T05:57:35.607Z,48.25
2023-01-30T06:00:04.962Z,55.95
2023-01-30T06:02:40.546Z,51.17
2023-01-30T06:05:09.024Z,56.95
2023-01-30T06:07:38.609Z,37.63
2023-01-30T06:10:07.094Z,55.75
2023-01-30T06:12:35.602Z,61.15
2023-01-30T06:15:03.871Z,54.28
2023-01-30T06:17:34.383Z,57.88
2023-01-30T06:20:02.629Z,52.83
2023-01-30T06:22:31.316Z,58.30
2023-01-30T06:24:59.280Z,62.28
2023-01-30T06:27:28.183Z,60.42
2023-01-30T06:29:56.055Z,65.75
2023-01-30T06:32:23.924Z,75.68
2023-01-30T06:34:51.827Z,56.15
2023-01-30T06:37:20.178Z,59.33
2023-01-30T06:39:48.222Z,55.42
2023-01-30T06:42:15.974Z,55.75
2023-01-30T06:44:43.870Z,44.17
2023-01-30T06:47:12.440Z,45.53
2023-01-30T06:49:40.696Z,48.33
2023-01-30T06:52:08.731Z,54.53
2023-01-30T06:54:37.274Z,51.22
2023-01-30T06:57:05.035Z,56.17
2023-01-30T06:59:32.768Z,25.55
2023-01-30T07:02:00.531Z,43.25
2023-01-30T07:04:28.458Z,51.25
2023-01-30T07:06:57.316Z,40.95
2023-01-30T07:09:26.037Z,47.30
2023-01-30T07:11:55.225Z,57.42
2023-01-30T07:14:22.968Z,51.70
2023-01-30T07:16:50.752Z,58.47
2023-01-30T07:19:18.686Z,48.75
2023-01-30T07:21:46.479Z,62.30
2023-01-30T07:24:14.323Z,51.72
2023-01-30T07:26:42.626Z,65.45
2023-01-30T07:29:10.401Z,34.78
2023-01-30T07:31:38.713Z,54.92
2023-01-30T07:34:07.153Z,55.88
2023-01-30T07:36:35.915Z,52.05
2023-01-30T07:39:07.314Z,44.83
2023-01-30T07:41:38.785Z,48.90
2023-01-30T07:44:12.702Z,49.67
2023-01-30T07:46:42.917Z,44.58
2023-01-30T07:49:11.429Z,38.78
2023-01-30T07:51:39.993Z,41.78
2023-01-30T07:54:08.236Z,43.00
2023-01-30T07:56:37.618Z,36.88
2023-01-30T07:59:06.572Z,44.30
2023-01-30T08:01:35.550Z,45.15
2023-01-30T08:04:04.825Z,36.92
2023-01-30T08:06:39.410Z,51.80
2023-01-30T08:09:09.254Z,44.10
2023-01-30T08:11:41.344Z,49.20
2023-01-30T08:14:10.632Z,42.20
2023-01-30T08:16:42.423Z,31.17
2023-01-30T08:19:10.649Z,46.50
2023-01-30T08:21:38.756Z,56.20
2023-01-30T08:24:07.336Z,39.85
2023-01-30T08:26:35.343Z,39.75
2023-01-30T08:29:03.673Z,52.63
2023-01-30T11:22:39.252Z,19.40
2023-01-30T11:25:13.737Z,16.15
2023-01-30T11:27:42.348Z,17.52
2023-01-30T11:30:15.313Z,16.55
2023-01-30T11:32:44.040Z,15.05
2023-01-30T11:35:14.598Z,17.52
2023-01-30T11:37:43.709Z,12.60
2023-01-30T11:40:31.309Z,23.40
2023-01-30T11:43:06.115Z,26.30
2023-01-30T11:45:39.060Z,22.63
2023-01-30T11:48:33.187Z,23.70
2023-01-30T11:53:45.220Z,16.52
2023-01-30T11:56:23.261Z,21.33
2023-01-30T11:59:01.224Z,25.23
2023-01-30T12:01:31.626Z,25.40
2023-01-30T12:03:59.500Z,26.30
2023-01-30T12:06:37.309Z,25.45
2023-01-30T12:09:05.314Z,26.05
2023-01-30T12:11:42.332Z,23.00
2023-01-30T12:14:40.521Z,25.45
2023-01-30T12:17:32.787Z,47.53
2023-01-30T12:20:20.439Z,30.20
2023-01-30T12:23:02.484Z,27.67
2023-01-30T12:25:37.329Z,68.63
2023-01-30T12:28:30.216Z,40.28
2023-01-30T12:31:08.920Z,36.35
2023-01-30T12:33:36.615Z,46.30
2023-01-30T12:36:13.105Z,57.15
2023-01-30T12:38:59.660Z,53.40
2023-01-30T12:41:36.066Z,56.70
2023-01-30T12:44:10.232Z,54.50
2023-01-30T12:46:51.445Z,50.13
2023-01-30T12:49:52.955Z,52.42
2023-01-30T12:52:39.192Z,55.00
2023-01-30T12:55:21.955Z,65.45
2023-01-30T12:58:11.739Z,60.13
2023-01-30T13:00:48.697Z,63.72
2023-01-30T13:03:34.940Z,45.75
2023-01-30T13:06:17.549Z,49.55
2023-01-30T13:09:06.210Z,58.85
2023-01-30T13:11:34.131Z,56.25
2023-01-30T13:14:14.203Z,50.80
2023-01-30T13:16:50.597Z,35.08
2023-01-30T13:19:41.051Z,54.78
2023-01-30T13:22:13.676Z,51.03
2023-01-30T13:24:54.587Z,50.50
2023-01-30T13:27:22.347Z,52.28
2023-01-30T13:29:53.866Z,64.25
2023-01-30T13:32:27.631Z,58.20
2023-01-30T13:34:57.070Z,54.10
2023-01-30T13:37:24.893Z,40.05
2023-01-30T13:39:58.805Z,42.60
2023-01-30T13:42:37.713Z,49.30
2023-01-30T13:45:05.828Z,37.08
2023-01-30T13:47:36.579Z,38.13
2023-01-30T13:50:31.081Z,33.35
2023-01-30T13:53:05.135Z,29.08
2023-01-30T13:55:44.983Z,31.52
2023-01-30T13:58:48.848Z,30.88
2023-01-30T14:01:16.608Z,36.65
2023-01-30T14:03:44.348Z,34.65
2023-01-30T14:06:30.161Z,29.92
2023-01-30T14:08:59.662Z,31.98
2023-01-30T14:11:51.698Z,35.20
2023-01-30T14:14:19.407Z,26.65
2023-01-30T14:16:51.769Z,29.20
2023-01-30T14:19:20.587Z,29.23
2023-01-30T14:21:58.758Z,28.88
2023-01-30T14:24:27.702Z,38.83
2023-01-30T14:26:58.259Z,39.83
2023-01-30T14:29:37.912Z,32.60
2023-01-30T14:32:14.767Z,76.05
2023-01-30T14:35:04.344Z,121.10
2023-01-30T14:37:39.439Z,149.90
2023-01-30T14:40:22.187Z,216.15
2023-01-30T14:43:20.725Z,101.28
2023-01-30T14:46:01.106Z,69.18
2023-01-30T14:48:32.178Z,74.85
2023-01-30T14:51:24.067Z,71.00
2023-01-30T14:54:20.654Z,139.00
2023-01-30T14:57:03.424Z,129.93
2023-01-30T15:00:03.209Z,64.85
2023-01-30T15:02:44.449Z,131.23
2023-01-30T15:05:14.803Z,92.78
2023-01-30T15:07:54.142Z,103.50
2023-01-30T15:10:52.835Z,81.90
2023-01-30T15:13:36.236Z,80.00
2023-01-30T15:16:43.547Z,112.50
2023-01-30T15:19:18.330Z,89.50
2023-01-30T15:21:58.000Z,66.35
2023-01-30T15:24:34.892Z,67.10
2023-01-30T15:27:09.710Z,62.20
2023-01-30T15:29:45.993Z,57.85
2023-01-30T15:32:21.528Z,70.72
2023-01-30T15:34:54.516Z,69.22
2023-01-30T15:37:35.372Z,53.22
2023-01-30T15:40:21.257Z,69.22
2023-01-30T15:43:09.112Z,53.78
2023-01-30T15:46:03.417Z,58.40
2023-01-30T15:48:39.361Z,62.08
2023-01-30T15:51:11.297Z,73.88
2023-01-30T15:53:43.693Z,61.50
2023-01-30T15:56:17.274Z,52.97
2023-01-30T15:58:44.859Z,61.40
2023-01-30T16:01:16.010Z,47.42
2023-01-30T16:03:43.754Z,52.50
2023-01-30T16:06:34.165Z,52.03
2023-01-30T16:09:20.537Z,50.77
2023-01-30T16:11:48.230Z,45.95
2023-01-30T16:14:17.165Z,57.45
2023-01-30T16:16:44.932Z,48.90
2023-01-30T16:19:29.724Z,47.60
2023-01-30T16:22:05.584Z,61.25
2023-01-30T16:24:34.466Z,56.10
2023-01-30T16:27:06.749Z,56.17
2023-01-30T16:29:50.719Z,62.60
2023-01-30T16:32:19.819Z,56.58
2023-01-30T16:34:48.048Z,59.90
2023-01-30T16:37:16.784Z,58.78
2023-01-30T16:39:46.579Z,60.85
2023-01-30T16:42:28.114Z,57.50
2023-01-30T16:47:39.063Z,60.20
2023-01-30T16:50:18.372Z,62.70
2023-01-30T16:52:47.740Z,60.45
2023-01-30T16:55:28.201Z,58.35
2023-01-30T16:57:58.696Z,65.43
2023-01-30T17:00:35.461Z,65.82
2023-01-30T17:03:07.628Z,85.40
2023-01-30T17:05:40.989Z,82.80
2023-01-30T17:08:39.983Z,84.65
2023-01-30T17:11:07.625Z,71.78
2023-01-30T17:13:42.615Z,69.28
2023-01-30T17:16:22.448Z,78.47
2023-01-30T17:18:53.560Z,74.43
2023-01-30T17:21:21.839Z,85.57
2023-01-30T17:23:52.847Z,90.43
2023-01-30T17:26:21.726Z,94.65
2023-01-30T17:28:49.517Z,90.10
2023-01-30T17:31:17.353Z,84.47
2023-01-30T17:33:45.271Z,95.25
2023-01-30T17:36:25.513Z,90.75
2023-01-30T17:38:54.873Z,70.95
2023-01-30T17:41:25.758Z,84.72
2023-01-30T17:43:53.301Z,72.15
2023-01-30T17:46:23.487Z,67.03
2023-01-30T17:48:51.950Z,103.95
2023-01-30T17:51:19.602Z,68.97
2023-01-30T17:53:47.419Z,65.80
2023-01-30T17:56:29.377Z,64.47
2023-01-30T17:58:56.989Z,62.60
2023-01-30T18:01:24.656Z,68.63
2023-01-30T18:03:52.392Z,57.30
2023-01-30T18:06:21.347Z,50.53
2023-01-30T18:08:49.339Z,51.30
2023-01-30T18:11:17.473Z,53.65
2023-01-30T18:13:47.864Z,54.38
2023-01-30T18:16:24.698Z,53.90
2023-01-30T18:18:52.834Z,55.80
2023-01-30T18:21:22.375Z,95.47
2023-01-30T18:23:50.472Z,52.35
2023-01-30T18:26:18.676Z,52.30
2023-01-30T18:28:46.987Z,50.70
2023-01-30T18:31:16.452Z,43.72
2023-01-30T18:33:47.560Z,57.92
2023-01-30T18:36:17.125Z,42.97
2023-01-30T18:38:45.083Z,44.22
2023-01-30T18:41:14.065Z,45.05
2023-01-30T18:43:42.802Z,43.63
2023-01-30T18:46:12.396Z,35.63
2023-01-30T18:48:41.598Z,42.42
2023-01-30T18:51:12.212Z,41.20
2023-01-30T18:53:39.912Z,32.83
2023-01-30T18:56:15.293Z,41.53
2023-01-30T18:58:45.005Z,48.08
2023-01-30T19:01:14.681Z,32.47
2023-01-30T19:03:42.554Z,38.20
2023-01-30T19:06:11.874Z,41.95
2023-01-30T19:08:42.513Z,31.17
2023-01-30T19:11:33.862Z,28.27
2023-01-30T19:14:01.630Z,28.75
2023-01-30T19:16:30.166Z,23.58
2023-01-30T19:18:57.953Z,32.40
2023-01-30T19:21:26.069Z,34.65
2023-01-30T19:23:54.124Z,25.92
2023-01-30T19:26:22.437Z,30.33
2023-01-30T19:28:50.497Z,26.65
2023-01-30T19:31:19.992Z,36.45
2023-01-30T19:33:52.485Z,31.27
2023-01-30T19:36:21.541Z,27.73
2023-01-30T19:38:49.815Z,35.08
2023-01-30T19:41:27.966Z,23.10
2023-01-30T19:43:56.160Z,29.17
2023-01-30T19:46:28.984Z,23.10
2023-01-30T19:48:57.455Z,22.38
2023-01-30T19:51:29.684Z,26.02
2023-01-30T19:54:00.744Z,27.35
2023-01-30T19:56:29.007Z,21.38
2023-01-30T19:58:58.489Z,19.95
2023-01-30T20:01:29.794Z,30.35
2023-01-30T20:03:57.769Z,28.30
2023-01-30T20:06:26.948Z,29.77
2023-01-30T20:08:56.664Z,26.58
2023-01-30T20:11:24.296Z,29.45
2023-01-30T20:13:52.249Z,30.50
2023-01-30T20:18:55.709Z,20.33
2023-01-30T20:21:23.655Z,26.33
2023-01-30T20:23:51.645Z,28.10
2023-01-30T20:26:27.671Z,23.15
2023-01-30T20:28:55.489Z,23.48
2023-01-30T20:31:30.042Z,22.20
2023-01-30T20:36:26.639Z,24.05
2023-01-30T20:38:55.609Z,27.88
2023-01-30T20:41:25.430Z,22.92
2023-01-30T20:43:54.517Z,30.00
2023-01-30T20:46:32.243Z,21.42
2023-01-30T20:49:03.533Z,13.65
2023-01-30T20:51:32.403Z,12.98
2023-01-30T20:54:01.676Z,24.90
2023-01-30T20:56:40.218Z,23.50
2023-01-30T20:59:08.038Z,23.45
2023-01-30T21:01:35.997Z,20.70
2023-01-30T21:04:08.353Z,24.05
2023-01-30T21:06:42.675Z,28.15
2023-01-30T21:09:17.936Z,34.45
2023-01-30T21:11:45.782Z,39.78
2023-01-30T21:14:14.764Z,20.52
2023-01-30T21:16:42.460Z,104.57
2023-01-30T21:19:14.231Z,149.50
2023-01-30T21:21:50.958Z,57.22
2023-01-30T21:24:27.769Z,42.67
2023-01-30T21:26:56.087Z,118.45
2023-01-30T21:29:24.879Z,30.48
2023-01-30T21:31:52.786Z,48.20
2023-01-30T21:34:20.458Z,125.53
2023-01-30T21:37:08.055Z,251.35
2023-01-30T21:39:54.138Z,357.73
2023-01-30T21:42:40.499Z,196.82
2023-01-30T21:45:08.643Z,42.03
2023-01-30T21:47:37.020Z,26.95
2023-01-30T21:50:05.195Z,22.67
2023-01-30T21:52:33.553Z,34.35
2023-01-30T21:55:01.231Z,32.45
2023-01-30T21:57:29.126Z,29.48
2023-01-30T21:59:57.022Z,36.40
2023-01-30T22:02:24.613Z,23.55
2023-01-30T22:04:52.397Z,22.75
2023-01-30T22:07:20.008Z,19.80
2023-01-30T22:09:49.016Z,21.05
2023-01-30T22:12:16.860Z,16.70
2023-01-30T22:14:44.754Z,16.55
2023-01-30T22:17:13.369Z,17.05
2023-01-30T22:19:41.478Z,21.58
2023-01-30T22:22:09.085Z,21.83
2023-01-30T22:24:38.619Z,18.20
2023-01-30T22:27:06.340Z,13.88
2023-01-30T22:29:35.366Z,15.48
2023-01-30T22:32:03.156Z,18.60
2023-01-30T22:34:31.388Z,24.75
2023-01-30T22:36:59.092Z,14.88
2023-01-30T22:39:26.962Z,20.48
2023-01-30T22:41:55.004Z,19.05
2023-01-30T22:44:23.303Z,20.10
2023-01-30T22:46:52.335Z,17.83
2023-01-30T22:49:22.900Z,20.08
2023-01-30T22:51:50.719Z,19.38
2023-01-30T22:54:18.952Z,28.88
2023-01-30T22:56:48.618Z,20.92
2023-01-30T22:59:16.625Z,18.88
2023-01-30T23:01:48.341Z,9.15
2023-01-30T23:04:17.707Z,15.93
2023-01-30T23:06:45.379Z,22.20
2023-01-30T23:09:18.018Z,22.80
2023-01-30T23:12:09.756Z,17.83
2023-01-30T23:14:38.131Z,22.15
2023-01-30T23:17:26.271Z,17.15
2023-01-30T23:19:54.734Z,22.35
2023-01-30T23:22:22.460Z,21.00
2023-01-30T23:24:51.494Z,19.33
2023-01-30T23:27:19.919Z,21.02
2023-01-30T23:29:47.573Z,19.75
2023-01-30T23:32:15.291Z,20.52
2023-01-30T23:34:42.989Z,20.27
2023-01-30T23:37:10.709Z,19.30
2023-01-30T23:39:40.040Z,21.63
2023-01-30T23:42:07.654Z,27.77
2023-01-30T23:44:35.513Z,21.10
2023-01-30T23:47:03.130Z,24.55
2023-01-30T23:49:30.959Z,60.20
2023-01-30T23:51:58.618Z,54.95
2023-01-30T23:54:27.355Z,21.45
2023-01-30T23:56:55.525Z,17.50
2023-01-30T23:59:23.325Z,43.90
